Time;durP1;ratioP1;P1;durP2;ratioP2;P2;SDS_P1;SDS_P2;PMS_P1;PMS_P2;Temp;Humidity;BMP_temperature;BMP_pressure;BME280_temperature;BME280_humidity;BME280_pressure;Samples;Min_cycle;Max_cycle;Signal;HPM_P1;HPM_P2
2021/01/25 00:02:14;;;;;;;105.82;41.72;;;7.30;99.90;;;;;;4997489;28;20030;-83
2021/01/25 00:04:40;;;;;;;136.43;51.92;;;7.30;99.90;;;;;;4997421;28;20410;-84
2021/01/25 00:07:06;;;;;;;257.20;80.28;;;7.30;99.90;;;;;;4995432;28;20024;-84
2021/01/25 00:09:32;;;;;;;273.77;90.82;;;7.30;99.90;;;;;;4995867;28;20599;-84
2021/01/25 00:11:58;;;;;;;290.25;90.28;;;7.30;99.90;;;;;;4997101;28;20057;-83
2021/01/25 00:14:23;;;;;;;163.27;53.28;;;7.30;99.90;;;;;;4995582;28;20022;-83
2021/01/25 00:16:49;;;;;;;193.93;58.13;;;7.40;99.90;;;;;;4994858;28;20145;-84
2021/01/25 00:19:15;;;;;;;122.70;42.60;;;7.30;99.90;;;;;;4994585;28;20038;-83
2021/01/25 00:21:43;;;;;;;107.00;40.50;;;7.40;99.90;;;;;;4994449;28;20046;-83
2021/01/25 00:24:09;;;;;;;85.15;32.20;;;7.40;99.90;;;;;;4995968;28;20338;-82
2021/01/25 00:26:34;;;;;;;83.63;34.97;;;7.40;99.90;;;;;;4996273;28;20496;-84
2021/01/25 00:29:00;;;;;;;70.30;30.92;;;7.30;99.90;;;;;;4996443;28;20065;-84
2021/01/25 00:31:26;;;;;;;84.63;33.45;;;7.30;99.90;;;;;;4996854;28;20018;-84
2021/01/25 00:33:51;;;;;;;82.82;31.67;;;7.30;99.90;;;;;;4997149;28;20465;-84
2021/01/25 00:36:18;;;;;;;88.53;36.13;;;7.40;99.90;;;;;;4997633;28;20030;-83
2021/01/25 00:38:44;;;;;;;108.75;40.78;;;7.40;99.90;;;;;;4995621;28;20072;-83
2021/01/25 00:41:09;;;;;;;113.32;41.60;;;7.40;99.90;;;;;;5015958;28;20030;-84
2021/01/25 00:43:35;;;;;;;105.32;40.65;;;7.40;99.90;;;;;;5016120;28;20065;-84
2021/01/25 00:46:01;;;;;;;104.10;39.30;;;7.40;99.90;;;;;;5015959;28;20034;-85
2021/01/25 00:48:26;;;;;;;93.85;36.33;;;7.50;99.90;;;;;;4998327;28;20022;-86
2021/01/25 00:50:53;;;;;;;101.00;38.10;;;7.50;99.90;;;;;;4998757;28;20033;-86
2021/01/25 00:53:18;;;;;;;93.20;36.58;;;7.50;99.90;;;;;;5016041;28;20029;-85
2021/01/25 00:55:44;;;;;;;94.32;37.63;;;7.40;99.90;;;;;;4998703;28;20026;-86
2021/01/25 00:58:10;;;;;;;99.53;39.10;;;7.50;99.90;;;;;;5016023;28;20072;-84
2021/01/25 01:00:36;;;;;;;86.28;35.75;;;7.50;99.90;;;;;;5015866;28;20030;-85
2021/01/25 01:03:02;;;;;;;77.82;32.92;;;7.50;99.90;;;;;;4998278;28;20030;-85
2021/01/25 01:05:28;;;;;;;63.88;26.13;;;7.50;99.90;;;;;;5015647;28;20686;-85
2021/01/25 01:07:54;;;;;;;45.72;20.55;;;7.60;99.90;;;;;;5015516;28;20021;-85
2021/01/25 01:10:19;;;;;;;38.08;17.02;;;7.60;99.90;;;;;;4997899;28;20033;-85
2021/01/25 01:12:45;;;;;;;28.13;15.23;;;7.60;99.90;;;;;;5015355;28;20500;-85
2021/01/25 01:15:13;;;;;;;25.90;13.55;;;7.60;99.90;;;;;;4997755;28;20032;-84
2021/01/25 01:17:44;;;;;;;21.92;11.88;;;7.60;99.90;;;;;;5015392;28;20037;-85
2021/01/25 01:20:11;;;;;;;22.13;11.73;;;7.60;99.90;;;;;;5015546;28;20782;-85
2021/01/25 01:22:36;;;;;;;19.92;10.85;;;7.70;99.90;;;;;;4997673;28;20173;-85
2021/01/25 01:25:05;;;;;;;18.48;11.18;;;7.70;99.90;;;;;;5015244;28;20483;-85
2021/01/25 01:27:31;;;;;;;13.18;9.77;;;7.70;99.90;;;;;;4997650;28;20033;-85
2021/01/25 01:29:57;;;;;;;16.67;11.40;;;7.60;99.90;;;;;;4997677;28;20018;-85
2021/01/25 01:32:22;;;;;;;15.70;10.20;;;7.70;99.90;;;;;;5015096;28;20048;-85
2021/01/25 01:34:48;;;;;;;16.42;10.57;;;7.70;99.90;;;;;;5015028;28;20077;-85
2021/01/25 01:37:14;;;;;;;16.13;10.15;;;7.70;99.90;;;;;;5014922;28;20018;-85
2021/01/25 01:39:40;;;;;;;17.63;10.10;;;7.70;99.90;;;;;;4997615;28;20025;-84
2021/01/25 01:42:06;;;;;;;13.95;9.02;;;7.70;99.90;;;;;;5014886;28;20084;-85
2021/01/25 01:44:32;;;;;;;17.40;10.55;;;7.70;99.90;;;;;;4997461;28;20022;-85
2021/01/25 01:46:59;;;;;;;24.98;11.50;;;7.70;99.90;;;;;;5014770;28;20032;-84
2021/01/25 01:49:24;;;;;;;17.98;10.73;;;7.70;99.90;;;;;;5015142;28;20018;-84
2021/01/25 01:51:50;;;;;;;20.25;11.70;;;7.70;99.90;;;;;;4997258;28;20022;-84
2021/01/25 01:54:19;;;;;;;21.92;12.05;;;7.70;99.90;;;;;;5014939;28;20058;-84
2021/01/25 01:56:44;;;;;;;27.73;14.13;;;7.70;99.90;;;;;;5014865;28;20060;-84
2021/01/25 01:59:10;;;;;;;23.15;14.00;;;7.70;99.90;;;;;;5014222;28;20057;-84
2021/01/25 02:01:36;;;;;;;24.50;13.05;;;7.60;99.90;;;;;;4996751;28;20032;-84
2021/01/25 02:04:01;;;;;;;19.60;12.25;;;7.70;99.90;;;;;;5014799;28;20057;-84
2021/01/25 02:06:30;;;;;;;18.92;12.07;;;7.70;99.90;;;;;;4997053;28;20026;-84
2021/01/25 02:08:58;;;;;;;18.60;11.52;;;7.70;99.90;;;;;;5014453;28;20068;-83
2021/01/25 02:11:26;;;;;;;20.23;10.45;;;7.70;99.90;;;;;;4996700;28;20022;-84
2021/01/25 02:13:52;;;;;;;19.23;11.70;;;7.70;99.90;;;;;;5014488;28;20483;-84
2021/01/25 02:16:18;;;;;;;15.15;10.45;;;7.70;99.90;;;;;;4997643;28;20388;-84
2021/01/25 02:18:43;;;;;;;23.05;12.55;;;7.70;99.90;;;;;;5033441;28;20081;-82
2021/01/25 02:21:12;;;;;;;19.38;11.10;;;7.70;99.90;;;;;;5035671;28;20030;-83
2021/01/25 02:24:17;;;;;;;15.82;10.15;;;7.70;99.90;;;;;;5020390;28;20022;-83
2021/01/25 02:27:07;;;;;;;18.67;10.07;;;7.70;99.90;;;;;;5028088;28;20095;-84
2021/01/25 02:29:34;;;;;;;15.48;10.00;;;7.70;99.90;;;;;;4997993;28;20435;-84
2021/01/25 02:32:00;;;;;;;17.20;10.35;;;7.70;99.90;;;;;;4997846;28;20117;-85
2021/01/25 02:34:29;;;;;;;17.17;8.85;;;7.70;99.90;;;;;;5014983;28;20509;-85
2021/01/25 02:36:57;;;;;;;11.95;8.07;;;7.70;99.90;;;;;;5014673;28;20018;-85
2021/01/25 02:39:24;;;;;;;15.25;8.45;;;7.70;99.90;;;;;;4996559;28;20048;-84
2021/01/25 02:41:51;;;;;;;11.95;8.20;;;7.70;99.90;;;;;;5013950;28;20100;-84
2021/01/25 02:44:17;;;;;;;16.20;9.05;;;7.70;99.90;;;;;;5014267;28;20022;-84
2021/01/25 02:46:44;;;;;;;14.65;9.30;;;7.70;99.90;;;;;;4996594;28;20400;-84
2021/01/25 02:49:11;;;;;;;13.23;9.10;;;7.80;99.90;;;;;;5013663;28;20029;-84
2021/01/25 02:51:36;;;;;;;12.75;8.38;;;7.70;99.90;;;;;;4995602;28;20033;-84
2021/01/25 02:54:03;;;;;;;16.73;9.40;;;7.80;99.90;;;;;;5013528;28;20372;-84
2021/01/25 02:56:29;;;;;;;17.63;9.90;;;7.80;99.90;;;;;;5014152;28;20026;-85
2021/01/25 02:58:55;;;;;;;16.17;10.38;;;7.80;99.90;;;;;;5014151;28;20030;-84
2021/01/25 03:01:21;;;;;;;24.77;12.20;;;7.80;99.90;;;;;;5013798;28;20049;-86
2021/01/25 03:03:50;;;;;;;19.05;12.13;;;7.80;99.90;;;;;;5013696;28;20531;-85
2021/01/25 03:06:16;;;;;;;22.90;13.00;;;7.80;99.90;;;;;;5014123;28;20030;-85
2021/01/25 03:08:45;;;;;;;23.88;13.75;;;7.80;99.90;;;;;;4996163;28;20022;-85
2021/01/25 03:11:11;;;;;;;26.77;14.40;;;7.80;99.90;;;;;;5013909;28;20018;-85
2021/01/25 03:13:36;;;;;;;28.92;14.20;;;7.80;99.90;;;;;;4996558;28;20088;-85
2021/01/25 03:16:03;;;;;;;27.70;14.85;;;7.80;99.90;;;;;;4995979;28;20041;-86
2021/01/25 03:18:28;;;;;;;28.75;14.95;;;7.70;99.90;;;;;;4996974;28;20018;-86
2021/01/25 03:20:55;;;;;;;26.98;15.27;;;7.80;99.90;;;;;;4996502;28;20701;-86
2021/01/25 03:23:21;;;;;;;30.45;15.73;;;7.80;99.90;;;;;;4998759;28;20049;-86
2021/01/25 03:25:47;;;;;;;28.17;16.42;;;7.80;99.90;;;;;;5017796;28;20033;-86
2021/01/25 03:28:13;;;;;;;31.38;16.08;;;7.80;99.90;;;;;;5017733;28;20452;-86
2021/01/25 03:30:40;;;;;;;30.70;16.90;;;7.80;99.90;;;;;;5000742;28;20117;-86
2021/01/25 03:33:06;;;;;;;27.38;16.92;;;7.80;99.90;;;;;;5022639;28;20047;-85
2021/01/25 03:35:32;;;;;;;31.63;17.25;;;7.80;99.90;;;;;;5010467;28;20403;-85
2021/01/25 03:37:58;;;;;;;34.58;17.00;;;7.80;99.90;;;;;;5004834;28;20090;-83
2021/01/25 03:40:24;;;;;;;39.28;19.35;;;7.80;99.90;;;;;;5021164;28;20056;-86
2021/01/25 03:42:50;;;;;;;36.65;18.10;;;7.80;99.90;;;;;;4999722;28;20095;-85
2021/01/25 03:45:15;;;;;;;38.17;18.35;;;7.80;99.90;;;;;;4999749;28;20037;-84
2021/01/25 03:47:41;;;;;;;37.90;20.35;;;7.80;99.90;;;;;;5017563;28;20029;-84
2021/01/25 03:50:07;;;;;;;35.28;19.10;;;7.80;99.90;;;;;;4999389;28;20026;-84
2021/01/25 03:52:33;;;;;;;47.85;20.77;;;7.70;99.90;;;;;;5017288;28;20057;-84
2021/01/25 03:54:59;;;;;;;36.55;19.75;;;7.80;99.90;;;;;;5017297;28;20041;-84
2021/01/25 03:57:24;;;;;;;36.47;20.35;;;7.70;99.90;;;;;;5017178;28;20041;-84
2021/01/25 03:59:50;;;;;;;40.47;18.85;;;7.70;99.90;;;;;;5018091;28;20036;-84
2021/01/25 04:02:16;;;;;;;38.28;20.15;;;7.70;99.90;;;;;;5017848;28;20110;-84
2021/01/25 04:04:42;;;;;;;32.38;19.23;;;7.70;99.90;;;;;;5017489;28;20076;-83
2021/01/25 04:07:11;;;;;;;38.47;19.92;;;7.70;99.90;;;;;;5017134;28;20025;-85
2021/01/25 04:09:38;;;;;;;35.88;19.02;;;7.70;99.90;;;;;;5017039;28;20026;-84
2021/01/25 04:12:04;;;;;;;32.30;18.33;;;7.70;99.90;;;;;;5016674;28;20022;-85
2021/01/25 04:14:30;;;;;;;36.20;19.02;;;7.60;99.90;;;;;;4999804;28;20022;-85
2021/01/25 04:16:56;;;;;;;42.83;19.25;;;7.60;99.90;;;;;;5016808;28;20022;-85
2021/01/25 04:19:21;;;;;;;34.25;18.13;;;7.60;99.90;;;;;;4999153;28;20117;-84
2021/01/25 04:21:47;;;;;;;30.05;17.23;;;7.70;99.90;;;;;;4999060;28;20084;-84
2021/01/25 04:24:12;;;;;;;30.67;16.30;;;7.70;99.90;;;;;;4999175;28;20030;-85
2021/01/25 04:26:41;;;;;;;31.92;17.35;;;7.60;99.90;;;;;;5016468;28;20032;-85
2021/01/25 04:29:10;;;;;;;37.20;17.80;;;7.70;99.90;;;;;;5016324;28;20018;-85
2021/01/25 04:31:35;;;;;;;33.35;17.42;;;7.70;99.90;;;;;;5016453;28;20464;-84
2021/01/25 04:34:01;;;;;;;32.47;18.33;;;7.70;99.90;;;;;;5016837;28;20033;-85
2021/01/25 04:36:27;;;;;;;37.17;17.60;;;7.70;99.90;;;;;;5000839;28;20037;-84
2021/01/25 04:38:53;;;;;;;36.47;18.63;;;7.70;99.90;;;;;;4999174;28;20032;-85
2021/01/25 04:41:18;;;;;;;33.47;19.27;;;7.70;99.90;;;;;;5016229;28;20102;-87
2021/01/25 04:43:46;;;;;;;38.22;20.50;;;7.70;99.90;;;;;;4998797;28;20037;-84
2021/01/25 04:46:13;;;;;;;38.50;21.23;;;7.70;99.90;;;;;;4998811;28;20041;-85
2021/01/25 04:48:42;;;;;;;35.95;21.27;;;7.70;99.90;;;;;;5016022;28;20018;-84
2021/01/25 04:51:07;;;;;;;39.85;21.35;;;7.70;99.90;;;;;;5015978;28;20103;-85
2021/01/25 04:53:34;;;;;;;41.60;22.30;;;7.70;99.90;;;;;;4998169;28;20018;-85
2021/01/25 04:56:00;;;;;;;42.22;22.60;;;7.60;99.90;;;;;;4998418;28;20026;-86
2021/01/25 04:58:26;;;;;;;42.50;21.70;;;7.60;99.90;;;;;;4998191;28;20483;-86
2021/01/25 05:00:53;;;;;;;40.47;21.05;;;7.60;99.90;;;;;;5015846;28;20038;-85
2021/01/25 05:03:18;;;;;;;44.45;21.48;;;7.60;99.90;;;;;;5016991;28;20058;-86
2021/01/25 05:05:44;;;;;;;36.25;20.10;;;7.60;99.90;;;;;;4998074;28;20054;-86
2021/01/25 05:08:10;;;;;;;41.33;20.70;;;7.60;99.90;;;;;;5015247;28;20478;-85
2021/01/25 05:10:35;;;;;;;35.28;19.10;;;7.60;99.90;;;;;;4997719;28;20080;-84
2021/01/25 05:13:01;;;;;;;41.00;20.95;;;7.60;99.90;;;;;;4997466;28;20376;-85
2021/01/25 05:15:32;;;;;;;39.78;19.80;;;7.60;99.90;;;;;;4997667;28;20153;-85
2021/01/25 05:18:03;;;;;;;34.75;19.42;;;7.60;99.90;;;;;;5015576;28;20034;-85
2021/01/25 05:20:31;;;;;;;39.22;21.00;;;7.70;99.90;;;;;;5016037;28;20101;-84
2021/01/25 05:22:58;;;;;;;38.35;20.40;;;7.60;99.90;;;;;;4999880;28;20049;-86
2021/01/25 05:25:27;;;;;;;37.70;18.70;;;7.60;99.90;;;;;;4998290;28;20030;-85
2021/01/25 05:27:54;;;;;;;36.05;18.10;;;7.60;99.90;;;;;;5015371;28;20372;-85
2021/01/25 05:30:20;;;;;;;31.85;18.42;;;7.60;99.90;;;;;;5016868;28;20375;-84
2021/01/25 05:32:51;;;;;;;32.40;16.80;;;7.60;99.90;;;;;;5019498;28;20022;-84
2021/01/25 05:35:19;;;;;;;35.15;18.75;;;7.60;99.90;;;;;;5001499;28;20022;-85
2021/01/25 05:37:52;;;;;;;37.65;19.58;;;7.60;99.90;;;;;;5016197;28;20056;-87
2021/01/25 05:40:20;;;;;;;37.13;18.60;;;7.70;99.90;;;;;;4997594;28;20033;-87
2021/01/25 05:42:46;;;;;;;40.28;20.45;;;7.60;99.90;;;;;;5015334;28;20030;-85
2021/01/25 05:45:13;;;;;;;34.38;19.67;;;7.70;99.90;;;;;;5014328;28;20411;-87
2021/01/25 05:48:05;;;;;;;42.28;20.80;;;7.70;99.90;;;;;;4997417;28;20071;-87
2021/01/25 05:50:36;;;;;;;46.53;23.10;;;7.70;99.90;;;;;;5010321;28;20041;-87
2021/01/25 05:53:10;;;;;;;41.80;20.73;;;7.70;99.90;;;;;;5012897;28;20083;-86
2021/01/25 05:55:36;;;;;;;48.15;23.92;;;7.70;99.90;;;;;;5013985;28;20041;-86
2021/01/25 05:58:03;;;;;;;38.53;20.98;;;7.70;99.90;;;;;;4996373;28;20388;-86
2021/01/25 06:00:30;;;;;;;34.20;19.60;;;7.70;99.90;;;;;;4996679;28;20026;-86
2021/01/25 06:02:56;;;;;;;42.95;21.40;;;7.60;99.90;;;;;;4996520;28;20026;-79
2021/01/25 06:05:42;;;;;;;41.50;22.27;;;7.60;99.90;;;;;;5012473;28;20072;-80
2021/01/25 06:08:35;;;;;;;44.70;22.42;;;7.60;99.90;;;;;;4995289;28;20068;-79
2021/01/25 06:11:08;;;;;;;40.65;20.35;;;7.60;99.90;;;;;;5012925;28;20069;-80
2021/01/25 06:13:57;;;;;;;47.92;20.75;;;7.50;99.90;;;;;;5012905;28;20033;-80
2021/01/25 06:16:25;;;;;;;37.92;19.90;;;7.40;99.90;;;;;;4982658;28;20034;-80
2021/01/25 06:19:03;;;;;;;31.15;16.40;;;7.40;99.90;;;;;;5011709;28;20030;-79
2021/01/25 06:21:32;;;;;;;38.70;18.77;;;7.40;99.90;;;;;;5013655;28;20107;-79
2021/01/25 06:24:01;;;;;;;30.40;17.83;;;7.40;99.90;;;;;;5012384;28;20172;-80
2021/01/25 06:26:30;;;;;;;29.50;16.95;;;7.40;99.90;;;;;;4994224;28;20547;-79
2021/01/25 06:29:02;;;;;;;30.38;16.30;;;7.40;99.90;;;;;;5012218;28;20075;-80
2021/01/25 06:31:28;;;;;;;;;;;7.40;99.90;;;;;;5012396;28;20026;-80
2021/01/25 06:33:54;;;;;;;27.17;15.02;;;7.40;99.90;;;;;;5012416;28;20012;-79
2021/01/25 06:36:20;;;;;;;26.90;16.60;;;7.40;99.90;;;;;;5012259;28;20060;-80
2021/01/25 06:38:49;;;;;;;29.58;16.38;;;7.50;99.90;;;;;;4994382;28;20120;-78
2021/01/25 06:41:16;;;;;;;27.20;16.30;;;7.40;99.90;;;;;;5012028;28;20061;-78
2021/01/25 06:43:45;;;;;;;38.85;19.65;;;7.50;99.90;;;;;;4994143;28;20399;-77
2021/01/25 06:46:19;;;;;;;45.03;19.35;;;7.50;99.90;;;;;;5011649;28;20022;-79
2021/01/25 06:48:50;;;;;;;44.00;21.67;;;7.50;99.90;;;;;;5011804;28;20025;-77
2021/01/25 06:51:20;;;;;;;47.60;22.33;;;7.50;99.90;;;;;;4994064;28;20029;-78
2021/01/25 06:53:50;;;;;;;38.28;21.20;;;7.50;99.90;;;;;;4994149;28;20036;-77
2021/01/25 06:56:16;;;;;;;43.03;19.70;;;7.60;99.90;;;;;;4993472;28;20144;-77
2021/01/25 06:58:47;;;;;;;39.75;21.05;;;7.50;99.90;;;;;;5002744;28;20030;-77
2021/01/25 07:01:16;;;;;;;38.95;20.50;;;7.60;99.90;;;;;;4990328;28;20026;-75
2021/01/25 07:03:52;;;;;;;40.45;19.13;;;7.60;99.90;;;;;;4990189;28;20404;-76
2021/01/25 07:06:18;;;;;;;38.53;18.77;;;7.60;99.90;;;;;;4990806;28;20027;-76
2021/01/25 07:08:55;;;;;;;42.63;17.75;;;7.60;99.90;;;;;;4975682;28;20018;-76
2021/01/25 07:11:22;;;;;;;40.40;20.38;;;7.60;99.90;;;;;;4987969;28;20041;-76
2021/01/25 07:13:49;;;;;;;114.32;41.55;;;7.60;99.90;;;;;;4974846;28;20018;-77
2021/01/25 07:16:16;;;;;;;87.55;32.95;;;7.60;99.90;;;;;;4990174;28;20022;-75
2021/01/25 07:18:43;;;;;;;98.40;36.67;;;7.60;99.90;;;;;;4974095;28;20030;-76
2021/01/25 07:21:12;;;;;;;113.90;37.35;;;7.70;99.90;;;;;;4974975;28;20407;-76
2021/01/25 07:23:44;;;;;;;85.05;29.88;;;7.70;99.90;;;;;;4992432;28;20495;-76
2021/01/25 07:26:14;;;;;;;79.03;29.00;;;7.70;99.90;;;;;;4990313;28;20424;-77
2021/01/25 07:28:41;;;;;;;59.53;26.80;;;7.70;99.90;;;;;;4989761;28;20097;-76
2021/01/25 07:31:09;;;;;;;62.90;27.80;;;7.70;99.90;;;;;;4990112;28;20033;-76
2021/01/25 07:33:35;;;;;;;66.32;28.95;;;7.70;99.90;;;;;;4992041;28;20457;-77
2021/01/25 07:36:01;;;;;;;85.63;30.25;;;7.70;99.90;;;;;;4991635;28;20058;-76
2021/01/25 07:38:28;;;;;;;78.68;29.08;;;7.70;99.90;;;;;;4990907;28;20069;-76
2021/01/25 07:40:57;;;;;;;77.18;29.80;;;7.70;99.90;;;;;;4990229;28;20388;-76
2021/01/25 07:43:25;;;;;;;66.47;27.30;;;7.70;99.90;;;;;;4978383;28;20034;-77
2021/01/25 07:45:51;;;;;;;64.13;27.48;;;7.80;99.90;;;;;;5011092;28;20021;-75
2021/01/25 07:48:17;;;;;;;67.10;30.40;;;7.80;99.90;;;;;;5010694;28;20415;-77
2021/01/25 07:50:53;;;;;;;70.32;29.80;;;7.80;99.90;;;;;;5011208;28;20022;-77
2021/01/25 07:53:19;;;;;;;55.58;28.88;;;7.80;99.90;;;;;;5011374;28;20041;-77
2021/01/25 07:55:44;;;;;;;58.30;25.50;;;7.80;99.90;;;;;;5011350;28;20464;-77
2021/01/25 07:58:12;;;;;;;55.85;25.63;;;7.90;99.90;;;;;;5011205;28;20468;-75
2021/01/25 08:00:41;;;;;;;49.28;24.50;;;7.90;99.90;;;;;;4993399;28;20030;-76
2021/01/25 08:03:21;;;;;;;45.97;24.60;;;7.90;99.90;;;;;;4993599;28;20119;-76
2021/01/25 08:05:52;;;;;;;44.67;24.35;;;7.90;99.90;;;;;;5010805;28;20149;-76
2021/01/25 08:08:20;;;;;;;53.03;24.02;;;7.90;99.90;;;;;;5011706;28;20030;-76
2021/01/25 08:10:46;;;;;;;55.13;25.65;;;8.00;99.90;;;;;;5014686;28;20026;-77
2021/01/25 08:13:19;;;;;;;61.40;25.85;;;8.00;99.90;;;;;;5014476;28;20441;-76
2021/01/25 08:15:52;;;;;;;;;;;8.00;99.90;;;;;;5014582;28;20472;-77
2021/01/25 08:18:23;;;;;;;49.53;19.92;;;8.00;99.90;;;;;;5014316;28;19958;-76
2021/01/25 08:20:55;;;;;;;62.08;22.50;;;8.10;99.90;;;;;;5014232;28;20053;-77
2021/01/25 08:23:24;;;;;;;56.38;22.65;;;8.10;99.90;;;;;;4996394;28;20056;-76
2021/01/25 08:25:59;;;;;;;45.63;22.80;;;8.20;99.90;;;;;;5014328;28;20053;-76
2021/01/25 08:28:29;;;;;;;36.55;20.30;;;8.20;99.90;;;;;;4996515;28;20022;-77
2021/01/25 08:31:14;;;;;;;48.30;23.40;;;8.20;99.90;;;;;;5014060;28;20029;-76
2021/01/25 08:33:43;;;;;;;49.92;23.00;;;8.20;99.90;;;;;;5014611;28;20147;-78
2021/01/25 08:36:11;;;;;;;46.28;23.50;;;8.20;99.90;;;;;;4996409;28;20026;-78
2021/01/25 08:38:42;;;;;;;38.15;20.95;;;8.20;99.90;;;;;;5014246;28;20041;-78
2021/01/25 08:41:31;;;;;;;22.83;12.98;;;8.20;99.90;;;;;;5013872;28;20405;-79
2021/01/25 08:44:09;;;;;;;20.20;12.82;;;8.20;99.90;;;;;;5014416;28;20381;-78
2021/01/25 08:46:38;;;;;;;20.67;13.50;;;8.30;99.90;;;;;;4996665;28;20022;-79
2021/01/25 08:49:40;;;;;;;23.13;14.82;;;8.20;99.90;;;;;;4996330;28;20026;-78
2021/01/25 08:52:20;;;;;;;26.38;14.20;;;8.30;99.90;;;;;;5013809;28;20018;-79
2021/01/25 08:54:46;;;;;;;24.92;14.52;;;8.30;99.90;;;;;;5014636;28;20453;-80
2021/01/25 08:57:36;;;;;;;26.67;14.98;;;8.40;99.90;;;;;;5013807;28;20053;-77
2021/01/25 09:00:18;;;;;;;26.52;14.32;;;8.40;99.90;;;;;;4987929;28;20404;-80
2021/01/25 09:02:45;;;;;;;44.33;22.27;;;8.40;99.90;;;;;;4993201;28;20126;-78
2021/01/25 09:05:13;;;;;;;25.73;14.27;;;8.40;99.90;;;;;;4976019;28;20038;-77
2021/01/25 09:07:44;;;;;;;24.52;12.88;;;8.40;99.90;;;;;;4993725;28;20022;-78
2021/01/25 09:10:11;;;;;;;40.90;21.13;;;8.40;99.90;;;;;;4976257;28;20032;-77
2021/01/25 09:12:36;;;;;;;29.25;16.08;;;8.40;99.90;;;;;;4993829;28;20085;-77
2021/01/25 09:15:05;;;;;;;28.60;14.07;;;8.40;99.90;;;;;;4993351;28;20027;-77
2021/01/25 09:17:30;;;;;;;32.70;13.82;;;8.40;99.90;;;;;;4993578;28;20022;-78
2021/01/25 09:19:56;;;;;;;41.17;18.00;;;8.40;99.90;;;;;;4992519;28;20051;-77
2021/01/25 09:22:22;;;;;;;27.33;11.52;;;8.40;99.90;;;;;;4993462;28;20405;-78
2021/01/25 09:24:47;;;;;;;23.88;11.68;;;8.40;99.90;;;;;;4993361;28;20069;-77
2021/01/25 09:27:13;;;;;;;26.77;11.95;;;8.40;99.90;;;;;;4993549;28;20476;-77
2021/01/25 09:29:39;;;;;;;16.48;11.60;;;8.50;99.90;;;;;;4993462;28;20022;-78
2021/01/25 09:32:05;;;;;;;33.63;17.27;;;8.60;99.90;;;;;;4993814;28;20019;-78
2021/01/25 09:34:31;;;;;;;35.10;14.77;;;8.60;99.90;;;;;;4993948;28;20027;-77
2021/01/25 09:36:57;;;;;;;37.05;20.15;;;8.60;99.90;;;;;;4993673;28;20495;-75
2021/01/25 09:39:23;;;;;;;36.97;17.70;;;8.60;99.90;;;;;;4993128;28;20030;-74
2021/01/25 09:41:49;;;;;;;40.53;17.33;;;8.50;99.90;;;;;;4993206;28;20030;-77
2021/01/25 09:44:18;;;;;;;33.47;17.20;;;8.50;99.90;;;;;;4975610;28;20030;-76
2021/01/25 09:46:44;;;;;;;30.17;16.45;;;8.50;99.90;;;;;;4995398;28;20037;-76
2021/01/25 09:49:10;;;;;;;32.80;15.18;;;8.50;99.90;;;;;;4992952;28;20019;-77
2021/01/25 09:51:37;;;;;;;37.88;15.20;;;8.50;99.90;;;;;;4991751;28;20026;-77
2021/01/25 09:54:03;;;;;;;37.92;16.02;;;8.50;99.90;;;;;;4992195;28;20350;-74
2021/01/25 09:56:29;;;;;;;46.85;19.38;;;8.50;99.90;;;;;;4992164;28;20030;-76
2021/01/25 09:58:55;;;;;;;41.65;18.63;;;8.50;99.90;;;;;;4992149;28;20480;-78
2021/01/25 10:01:24;;;;;;;48.67;21.35;;;8.60;99.90;;;;;;4992636;28;20030;-74
2021/01/25 10:03:50;;;;;;;53.75;21.70;;;8.60;99.90;;;;;;4992367;28;20036;-75
2021/01/25 10:06:16;;;;;;;52.03;21.60;;;8.70;99.90;;;;;;4974776;28;20026;-75
2021/01/25 10:08:41;;;;;;;33.30;15.40;;;8.70;99.90;;;;;;4992697;28;20018;-74
2021/01/25 10:11:07;;;;;;;40.53;18.60;;;8.70;99.90;;;;;;4992450;28;20133;-75
2021/01/25 10:13:33;;;;;;;49.92;20.48;;;8.70;99.90;;;;;;4992054;28;20018;-74
2021/01/25 10:15:59;;;;;;;44.10;17.88;;;8.70;99.90;;;;;;4992002;28;20037;-74
2021/01/25 10:18:25;;;;;;;40.90;16.20;;;8.60;99.90;;;;;;4991651;28;20030;-75
2021/01/25 10:20:51;;;;;;;38.35;13.63;;;8.60;99.90;;;;;;4991706;28;20106;-75
2021/01/25 10:23:17;;;;;;;33.05;15.25;;;8.60;99.90;;;;;;4991547;28;20460;-74
2021/01/25 10:25:43;;;;;;;37.45;17.80;;;8.60;99.90;;;;;;4991624;28;20445;-75
2021/01/25 10:28:09;;;;;;;36.00;15.20;;;8.60;99.90;;;;;;4991430;28;20105;-75
2021/01/25 10:30:35;;;;;;;44.53;19.20;;;8.60;99.90;;;;;;4991361;28;20022;-75
2021/01/25 10:33:00;;;;;;;45.28;20.92;;;8.60;99.90;;;;;;4991154;28;20376;-74
2021/01/25 10:35:27;;;;;;;30.83;16.67;;;8.60;99.90;;;;;;4974119;28;20438;-75
2021/01/25 10:37:53;;;;;;;38.10;17.17;;;8.60;99.90;;;;;;4990911;28;20373;-78
2021/01/25 10:40:20;;;;;;;50.63;24.70;;;8.60;99.90;;;;;;4990992;28;20030;-76
2021/01/25 10:42:46;;;;;;;44.17;21.40;;;8.60;99.90;;;;;;4973565;28;20491;-79
2021/01/25 10:45:13;;;;;;;41.72;19.17;;;8.60;99.90;;;;;;4991139;28;20034;-75
2021/01/25 10:47:42;;;;;;;23.88;13.73;;;8.70;99.90;;;;;;4973593;28;20029;-76
2021/01/25 10:50:13;;;;;;;42.47;18.33;;;8.70;99.90;;;;;;4990896;28;20518;-76
2021/01/25 10:52:39;;;;;;;46.47;20.15;;;8.70;99.90;;;;;;4991484;28;20030;-75
2021/01/25 10:55:06;;;;;;;35.13;20.45;;;8.70;99.90;;;;;;4991278;28;20369;-75
2021/01/25 10:57:33;;;;;;;42.05;22.08;;;8.80;99.90;;;;;;4990720;28;20473;-76
2021/01/25 11:00:10;;;;;;;57.60;23.08;;;8.80;99.90;;;;;;4990986;28;20022;-75
2021/01/25 11:02:36;;;;;;;44.58;20.27;;;8.90;99.90;;;;;;4991402;28;20090;-75
2021/01/25 11:05:06;;;;;;;44.75;22.45;;;8.90;99.90;;;;;;4990955;28;20370;-76
2021/01/25 11:07:32;;;;;;;40.75;22.63;;;8.90;99.90;;;;;;4990989;28;20363;-76
2021/01/25 11:09:58;;;;;;;42.92;24.73;;;8.90;99.90;;;;;;4991164;28;20030;-76
2021/01/25 11:12:24;;;;;;;38.30;21.73;;;8.80;99.90;;;;;;4991036;28;20033;-76
2021/01/25 11:14:49;;;;;;;39.03;22.85;;;8.70;99.90;;;;;;4973701;28;20433;-75
2021/01/25 11:17:15;;;;;;;56.75;29.88;;;8.60;99.90;;;;;;4991001;28;20189;-76
2021/01/25 11:19:41;;;;;;;46.38;26.02;;;8.40;99.90;;;;;;4990424;28;20026;-76
2021/01/25 11:22:07;;;;;;;55.35;30.30;;;8.30;99.90;;;;;;4991079;28;20058;-76
2021/01/25 11:24:33;;;;;;;56.85;32.90;;;8.20;99.90;;;;;;4990839;28;20116;-76
2021/01/25 11:27:00;;;;;;;47.20;24.40;;;8.10;99.90;;;;;;4990694;28;20386;-77
2021/01/25 11:29:29;;;;;;;45.58;22.17;;;8.10;99.90;;;;;;4991242;28;20030;-77
2021/01/25 11:31:57;;;;;;;38.58;18.77;;;8.10;99.90;;;;;;4991010;28;20421;-77
2021/01/25 11:34:23;;;;;;;48.00;28.00;;;8.10;99.90;;;;;;4990698;28;20401;-77
2021/01/25 11:36:50;;;;;;;52.25;29.05;;;8.20;99.90;;;;;;4991084;28;20034;-76
2021/01/25 11:39:16;;;;;;;55.00;30.77;;;8.10;99.90;;;;;;4973332;28;20174;-78
2021/01/25 11:41:41;;;;;;;55.63;29.20;;;8.00;99.90;;;;;;4990790;28;20113;-76
2021/01/25 11:44:07;;;;;;;50.72;26.85;;;7.80;99.90;;;;;;4991555;28;20042;-76
2021/01/25 11:46:33;;;;;;;41.08;22.08;;;7.80;99.90;;;;;;4994338;28;20465;-76
2021/01/25 11:48:59;;;;;;;43.80;22.48;;;7.80;99.90;;;;;;4994258;28;20018;-77
2021/01/25 11:51:24;;;;;;;53.78;25.40;;;7.90;99.90;;;;;;4994109;28;20029;-76
2021/01/25 11:53:50;;;;;;;59.25;29.35;;;8.00;99.90;;;;;;4994477;28;20030;-76
2021/01/25 11:56:17;;;;;;;50.95;24.17;;;8.10;99.90;;;;;;4994223;28;20030;-77
2021/01/25 11:58:43;;;;;;;49.58;27.23;;;8.20;99.90;;;;;;4994187;28;20026;-77
2021/01/25 12:01:09;;;;;;;40.70;21.75;;;8.20;99.90;;;;;;4993939;28;20037;-77
2021/01/25 12:03:35;;;;;;;44.70;23.27;;;8.20;99.90;;;;;;4994573;28;20030;-77
2021/01/25 12:06:01;;;;;;;43.40;23.35;;;8.20;99.90;;;;;;4994308;28;20093;-77
2021/01/25 12:08:26;;;;;;;44.35;24.70;;;8.20;99.90;;;;;;4994073;28;20430;-77
2021/01/25 12:10:52;;;;;;;49.83;25.80;;;8.10;99.90;;;;;;4993757;28;20377;-76
2021/01/25 12:13:18;;;;;;;44.25;22.80;;;8.00;99.90;;;;;;4993775;28;20033;-75
2021/01/25 12:15:44;;;;;;;44.58;24.20;;;8.00;99.90;;;;;;4994142;28;20031;-77
2021/01/25 12:18:10;;;;;;;42.45;22.40;;;7.80;99.90;;;;;;4994242;28;20097;-76
2021/01/25 12:20:36;;;;;;;41.00;23.05;;;7.80;99.90;;;;;;4993809;28;20037;-76
2021/01/25 12:23:02;;;;;;;49.05;24.55;;;7.80;99.90;;;;;;4993301;28;20098;-76
2021/01/25 12:25:28;;;;;;;49.45;26.60;;;7.70;99.90;;;;;;4993877;28;20034;-77
2021/01/25 12:27:54;;;;;;;49.88;26.60;;;7.60;99.90;;;;;;4993075;28;20026;-75
2021/01/25 12:30:20;;;;;;;58.33;27.50;;;7.60;99.90;;;;;;4993510;28;20030;-76
2021/01/25 12:32:46;;;;;;;51.67;27.45;;;7.60;99.90;;;;;;4993751;28;20377;-75
2021/01/25 12:35:13;;;;;;;55.13;26.95;;;7.60;99.90;;;;;;4993365;28;20029;-75
2021/01/25 12:37:39;;;;;;;52.22;26.67;;;7.60;99.90;;;;;;4993461;28;20034;-76
2021/01/25 12:40:08;;;;;;;57.80;30.23;;;7.50;99.90;;;;;;4993313;28;20469;-76
2021/01/25 12:42:34;;;;;;;58.78;29.08;;;7.50;99.90;;;;;;4993130;28;20113;-76